Terminal Aerodrome Forecast
Issued by NWS Cleveland, OH

Home | Current Version | Previous Version | Text Only | Print | Product List | Glossary Off
Versions: 1 2 3 4 5 6 7 8 9 10 11 12 13 14 15

658
FTUS41 KCLE 210523
TAFCAK
TAF
KCAK 210523Z 2106/2206 VRB02KT P6SM FEW250
     FM210800 00000KT 6SM BR FEW250
      TEMPO 2109/2110 4SM BR BKN015
     FM211000 00000KT 3SM BR SCT250
      TEMPO 2110/2113 1SM BR BKN004
     FM211400 00000KT 5SM BR SCT006
     FM211500 17003KT P6SM SCT250
     FM211800 16004KT P6SM SCT045
     FM220000 08003KT P6SM FEW250=

USA.gov is the U.S. government's official web portal to all federal, state and local government web resources and services.